sensor_id;sensor_type;location;lat;lon;timestamp;P1;durP1;ratioP1;P2;durP2;ratioP2
53931;SDS011;39844;52.496;13.482;2023-06-10T00:01:11;4.00;;;2.10;;
53931;SDS011;39844;52.496;13.482;2023-06-10T00:03:37;5.37;;;2.83;;
53931;SDS011;39844;52.496;13.482;2023-06-10T00:06:02;4.07;;;2.53;;
53931;SDS011;39844;52.496;13.482;2023-06-10T00:08:27;3.37;;;2.70;;
53931;SDS011;39844;52.496;13.482;2023-06-10T00:10:53;4.80;;;2.90;;
53931;SDS011;39844;52.496;13.482;2023-06-10T00:13:18;3.67;;;2.50;;
53931;SDS011;39844;52.496;13.482;2023-06-10T00:15:43;3.20;;;2.40;;
53931;SDS011;39844;52.496;13.482;2023-06-10T00:18:09;2.47;;;2.20;;
53931;SDS011;39844;52.496;13.482;2023-06-10T00:20:34;4.63;;;2.33;;
53931;SDS011;39844;52.496;13.482;2023-06-10T00:22:59;5.07;;;2.70;;
53931;SDS011;39844;52.496;13.482;2023-06-10T00:25:25;3.87;;;2.70;;
53931;SDS011;39844;52.496;13.482;2023-06-10T00:27:51;7.53;;;2.27;;
53931;SDS011;39844;52.496;13.482;2023-06-10T00:30:18;5.03;;;2.20;;
53931;SDS011;39844;52.496;13.482;2023-06-10T00:32:43;6.07;;;2.83;;
53931;SDS011;39844;52.496;13.482;2023-06-10T00:35:09;4.60;;;2.53;;
53931;SDS011;39844;52.496;13.482;2023-06-10T00:37:34;4.60;;;2.70;;
53931;SDS011;39844;52.496;13.482;2023-06-10T00:39:59;6.13;;;2.70;;
53931;SDS011;39844;52.496;13.482;2023-06-10T00:42:25;5.17;;;2.30;;
53931;SDS011;39844;52.496;13.482;2023-06-10T00:44:50;5.70;;;2.70;;
53931;SDS011;39844;52.496;13.482;2023-06-10T00:47:16;3.67;;;2.20;;
53931;SDS011;39844;52.496;13.482;2023-06-10T00:49:42;7.23;;;2.80;;
53931;SDS011;39844;52.496;13.482;2023-06-10T00:52:07;6.20;;;2.60;;
53931;SDS011;39844;52.496;13.482;2023-06-10T00:54:33;3.20;;;2.60;;
53931;SDS011;39844;52.496;13.482;2023-06-10T00:57:00;3.83;;;2.43;;
53931;SDS011;39844;52.496;13.482;2023-06-10T00:59:26;3.47;;;2.70;;
53931;SDS011;39844;52.496;13.482;2023-06-10T01:01:54;3.03;;;2.33;;
53931;SDS011;39844;52.496;13.482;2023-06-10T01:04:19;4.33;;;2.53;;
53931;SDS011;39844;52.496;13.482;2023-06-10T01:07:00;3.03;;;2.50;;
53931;SDS011;39844;52.496;13.482;2023-06-10T01:09:38;7.57;;;2.70;;
53931;SDS011;39844;52.496;13.482;2023-06-10T01:12:46;3.33;;;2.20;;
53931;SDS011;39844;52.496;13.482;2023-06-10T01:15:13;5.83;;;2.33;;
53931;SDS011;39844;52.496;13.482;2023-06-10T01:17:54;4.60;;;2.00;;
53931;SDS011;39844;52.496;13.482;2023-06-10T01:20:19;6.87;;;2.33;;
53931;SDS011;39844;52.496;13.482;2023-06-10T01:22:44;4.83;;;2.60;;
53931;SDS011;39844;52.496;13.482;2023-06-10T01:25:10;6.87;;;2.93;;
53931;SDS011;39844;52.496;13.482;2023-06-10T01:27:35;4.67;;;2.47;;
53931;SDS011;39844;52.496;13.482;2023-06-10T01:30:05;7.87;;;2.73;;
53931;SDS011;39844;52.496;13.482;2023-06-10T01:32:45;4.07;;;2.50;;
53931;SDS011;39844;52.496;13.482;2023-06-10T01:35:15;3.53;;;2.40;;
53931;SDS011;39844;52.496;13.482;2023-06-10T01:37:42;5.03;;;2.63;;
53931;SDS011;39844;52.496;13.482;2023-06-10T01:40:10;4.77;;;2.63;;
53931;SDS011;39844;52.496;13.482;2023-06-10T01:42:37;5.90;;;2.60;;
53931;SDS011;39844;52.496;13.482;2023-06-10T01:45:02;3.67;;;2.47;;
53931;SDS011;39844;52.496;13.482;2023-06-10T01:47:28;4.17;;;2.20;;
53931;SDS011;39844;52.496;13.482;2023-06-10T01:49:53;5.13;;;2.80;;
53931;SDS011;39844;52.496;13.482;2023-06-10T01:52:19;3.53;;;2.27;;
53931;SDS011;39844;52.496;13.482;2023-06-10T01:54:44;6.80;;;2.63;;
53931;SDS011;39844;52.496;13.482;2023-06-10T01:57:09;4.10;;;2.30;;
53931;SDS011;39844;52.496;13.482;2023-06-10T01:59:35;4.63;;;2.30;;
53931;SDS011;39844;52.496;13.482;2023-06-10T02:02:00;4.87;;;2.40;;
53931;SDS011;39844;52.496;13.482;2023-06-10T02:04:25;3.77;;;2.50;;
53931;SDS011;39844;52.496;13.482;2023-06-10T02:06:51;4.07;;;2.50;;
53931;SDS011;39844;52.496;13.482;2023-06-10T02:09:16;3.93;;;2.50;;
53931;SDS011;39844;52.496;13.482;2023-06-10T02:11:41;4.83;;;2.77;;
53931;SDS011;39844;52.496;13.482;2023-06-10T02:14:07;4.53;;;3.07;;
53931;SDS011;39844;52.496;13.482;2023-06-10T02:16:32;4.87;;;2.60;;
53931;SDS011;39844;52.496;13.482;2023-06-10T02:18:57;2.73;;;2.47;;
53931;SDS011;39844;52.496;13.482;2023-06-10T02:21:23;4.37;;;2.23;;
53931;SDS011;39844;52.496;13.482;2023-06-10T02:23:48;3.67;;;2.40;;
53931;SDS011;39844;52.496;13.482;2023-06-10T02:26:13;5.23;;;2.57;;
53931;SDS011;39844;52.496;13.482;2023-06-10T02:28:42;7.97;;;2.87;;
53931;SDS011;39844;52.496;13.482;2023-06-10T02:31:07;4.77;;;2.33;;
53931;SDS011;39844;52.496;13.482;2023-06-10T02:33:33;5.40;;;2.90;;
53931;SDS011;39844;52.496;13.482;2023-06-10T02:35:58;6.07;;;2.70;;
53931;SDS011;39844;52.496;13.482;2023-06-10T02:38:23;4.50;;;2.43;;
53931;SDS011;39844;52.496;13.482;2023-06-10T02:40:48;3.83;;;2.80;;
53931;SDS011;39844;52.496;13.482;2023-06-10T02:43:14;2.73;;;2.37;;
53931;SDS011;39844;52.496;13.482;2023-06-10T02:45:39;4.00;;;2.70;;
53931;SDS011;39844;52.496;13.482;2023-06-10T02:48:04;7.83;;;2.83;;
53931;SDS011;39844;52.496;13.482;2023-06-10T02:50:30;3.00;;;2.43;;
53931;SDS011;39844;52.496;13.482;2023-06-10T02:52:55;7.30;;;2.77;;
53931;SDS011;39844;52.496;13.482;2023-06-10T02:55:20;9.87;;;2.97;;
53931;SDS011;39844;52.496;13.482;2023-06-10T02:57:46;3.63;;;2.63;;
53931;SDS011;39844;52.496;13.482;2023-06-10T03:00:11;3.70;;;2.97;;
53931;SDS011;39844;52.496;13.482;2023-06-10T03:02:37;4.40;;;2.20;;
53931;SDS011;39844;52.496;13.482;2023-06-10T03:05:03;6.03;;;2.80;;
53931;SDS011;39844;52.496;13.482;2023-06-10T03:07:28;5.57;;;2.60;;
53931;SDS011;39844;52.496;13.482;2023-06-10T03:09:53;5.77;;;2.63;;
53931;SDS011;39844;52.496;13.482;2023-06-10T03:12:19;4.57;;;2.57;;
53931;SDS011;39844;52.496;13.482;2023-06-10T03:14:44;4.13;;;2.63;;
53931;SDS011;39844;52.496;13.482;2023-06-10T03:17:09;3.83;;;2.30;;
53931;SDS011;39844;52.496;13.482;2023-06-10T03:19:35;4.03;;;2.40;;
53931;SDS011;39844;52.496;13.482;2023-06-10T03:22:07;4.83;;;2.40;;
53931;SDS011;39844;52.496;13.482;2023-06-10T03:24:34;5.50;;;2.80;;
53931;SDS011;39844;52.496;13.482;2023-06-10T03:26:59;3.73;;;2.83;;
53931;SDS011;39844;52.496;13.482;2023-06-10T03:29:25;5.27;;;2.90;;
53931;SDS011;39844;52.496;13.482;2023-06-10T03:31:50;6.07;;;2.73;;
53931;SDS011;39844;52.496;13.482;2023-06-10T03:34:15;6.13;;;2.73;;
53931;SDS011;39844;52.496;13.482;2023-06-10T03:36:40;3.47;;;2.70;;
53931;SDS011;39844;52.496;13.482;2023-06-10T03:39:06;2.87;;;2.33;;
53931;SDS011;39844;52.496;13.482;2023-06-10T03:41:31;3.50;;;2.67;;
53931;SDS011;39844;52.496;13.482;2023-06-10T03:43:56;7.77;;;2.50;;
53931;SDS011;39844;52.496;13.482;2023-06-10T03:46:22;5.93;;;3.00;;
53931;SDS011;39844;52.496;13.482;2023-06-10T03:48:47;4.27;;;2.90;;
53931;SDS011;39844;52.496;13.482;2023-06-10T03:51:12;3.83;;;3.30;;
53931;SDS011;39844;52.496;13.482;2023-06-10T03:53:37;5.90;;;3.07;;
53931;SDS011;39844;52.496;13.482;2023-06-10T03:56:03;4.77;;;2.83;;
53931;SDS011;39844;52.496;13.482;2023-06-10T03:58:28;6.27;;;3.20;;
53931;SDS011;39844;52.496;13.482;2023-06-10T04:00:53;7.17;;;3.37;;
53931;SDS011;39844;52.496;13.482;2023-06-10T04:03:19;4.60;;;3.20;;
53931;SDS011;39844;52.496;13.482;2023-06-10T04:05:44;3.47;;;2.33;;
53931;SDS011;39844;52.496;13.482;2023-06-10T04:08:09;7.50;;;2.90;;
53931;SDS011;39844;52.496;13.482;2023-06-10T04:10:35;5.77;;;2.73;;
53931;SDS011;39844;52.496;13.482;2023-06-10T04:13:00;6.77;;;3.10;;
53931;SDS011;39844;52.496;13.482;2023-06-10T04:15:26;2.97;;;2.53;;
53931;SDS011;39844;52.496;13.482;2023-06-10T04:17:51;6.53;;;2.90;;
53931;SDS011;39844;52.496;13.482;2023-06-10T04:20:16;3.63;;;2.43;;
53931;SDS011;39844;52.496;13.482;2023-06-10T04:22:41;5.83;;;3.30;;
53931;SDS011;39844;52.496;13.482;2023-06-10T04:25:08;6.00;;;3.13;;
53931;SDS011;39844;52.496;13.482;2023-06-10T04:27:34;3.87;;;2.90;;
53931;SDS011;39844;52.496;13.482;2023-06-10T04:29:59;5.20;;;2.90;;
53931;SDS011;39844;52.496;13.482;2023-06-10T04:32:25;5.60;;;2.80;;
53931;SDS011;39844;52.496;13.482;2023-06-10T04:34:50;11.00;;;2.90;;
53931;SDS011;39844;52.496;13.482;2023-06-10T04:37:15;4.47;;;3.07;;
53931;SDS011;39844;52.496;13.482;2023-06-10T04:39:40;5.17;;;2.50;;
53931;SDS011;39844;52.496;13.482;2023-06-10T04:42:06;5.17;;;3.03;;
53931;SDS011;39844;52.496;13.482;2023-06-10T04:44:31;5.13;;;3.10;;
53931;SDS011;39844;52.496;13.482;2023-06-10T04:46:56;3.60;;;2.90;;
53931;SDS011;39844;52.496;13.482;2023-06-10T04:49:22;6.87;;;3.07;;
53931;SDS011;39844;52.496;13.482;2023-06-10T04:51:47;4.70;;;3.13;;
53931;SDS011;39844;52.496;13.482;2023-06-10T04:54:12;5.00;;;3.10;;
53931;SDS011;39844;52.496;13.482;2023-06-10T04:56:37;2.97;;;2.47;;
53931;SDS011;39844;52.496;13.482;2023-06-10T04:59:03;4.77;;;2.60;;
53931;SDS011;39844;52.496;13.482;2023-06-10T05:01:28;2.60;;;2.40;;
53931;SDS011;39844;52.496;13.482;2023-06-10T05:03:53;3.97;;;2.57;;
53931;SDS011;39844;52.496;13.482;2023-06-10T05:06:19;3.67;;;2.67;;
53931;SDS011;39844;52.496;13.482;2023-06-10T05:08:44;4.03;;;3.03;;
53931;SDS011;39844;52.496;13.482;2023-06-10T05:11:09;3.60;;;2.70;;
53931;SDS011;39844;52.496;13.482;2023-06-10T05:13:34;2.50;;;2.30;;
53931;SDS011;39844;52.496;13.482;2023-06-10T05:16:01;4.13;;;2.60;;
53931;SDS011;39844;52.496;13.482;2023-06-10T05:18:26;3.07;;;2.77;;
53931;SDS011;39844;52.496;13.482;2023-06-10T05:20:51;3.17;;;2.80;;
53931;SDS011;39844;52.496;13.482;2023-06-10T05:23:17;4.03;;;2.87;;
53931;SDS011;39844;52.496;13.482;2023-06-10T05:25:42;4.77;;;2.80;;
53931;SDS011;39844;52.496;13.482;2023-06-10T05:28:08;4.73;;;2.73;;
53931;SDS011;39844;52.496;13.482;2023-06-10T05:30:33;3.37;;;2.17;;
53931;SDS011;39844;52.496;13.482;2023-06-10T05:32:58;5.83;;;3.20;;
53931;SDS011;39844;52.496;13.482;2023-06-10T05:35:24;5.43;;;2.80;;
53931;SDS011;39844;52.496;13.482;2023-06-10T05:37:49;5.87;;;3.27;;
53931;SDS011;39844;52.496;13.482;2023-06-10T05:40:14;6.30;;;3.00;;
53931;SDS011;39844;52.496;13.482;2023-06-10T05:42:39;4.43;;;2.83;;
53931;SDS011;39844;52.496;13.482;2023-06-10T05:45:05;4.10;;;2.90;;
53931;SDS011;39844;52.496;13.482;2023-06-10T05:47:30;3.57;;;2.97;;
53931;SDS011;39844;52.496;13.482;2023-06-10T05:49:56;3.60;;;2.87;;
53931;SDS011;39844;52.496;13.482;2023-06-10T05:52:21;5.77;;;3.07;;
53931;SDS011;39844;52.496;13.482;2023-06-10T05:54:46;3.73;;;2.93;;
53931;SDS011;39844;52.496;13.482;2023-06-10T05:57:12;4.47;;;3.00;;
53931;SDS011;39844;52.496;13.482;2023-06-10T05:59:37;4.97;;;3.33;;
53931;SDS011;39844;52.496;13.482;2023-06-10T06:02:02;6.27;;;3.23;;
53931;SDS011;39844;52.496;13.482;2023-06-10T06:04:28;4.63;;;2.83;;
53931;SDS011;39844;52.496;13.482;2023-06-10T06:06:53;6.90;;;3.43;;
53931;SDS011;39844;52.496;13.482;2023-06-10T06:09:18;4.47;;;3.20;;
53931;SDS011;39844;52.496;13.482;2023-06-10T06:11:44;6.07;;;3.30;;
53931;SDS011;39844;52.496;13.482;2023-06-10T06:14:09;6.17;;;3.13;;
53931;SDS011;39844;52.496;13.482;2023-06-10T06:16:34;4.10;;;3.30;;
53931;SDS011;39844;52.496;13.482;2023-06-10T06:19:00;3.50;;;2.80;;
53931;SDS011;39844;52.496;13.482;2023-06-10T06:21:25;7.20;;;3.37;;
53931;SDS011;39844;52.496;13.482;2023-06-10T06:23:50;5.33;;;3.17;;
53931;SDS011;39844;52.496;13.482;2023-06-10T06:26:15;4.47;;;3.07;;
53931;SDS011;39844;52.496;13.482;2023-06-10T06:28:41;3.87;;;3.37;;
53931;SDS011;39844;52.496;13.482;2023-06-10T06:31:06;3.70;;;2.93;;
53931;SDS011;39844;52.496;13.482;2023-06-10T06:33:32;3.83;;;3.53;;
53931;SDS011;39844;52.496;13.482;2023-06-10T06:35:57;3.92;;;3.53;;
53931;SDS011;39844;52.496;13.482;2023-06-10T06:38:23;5.40;;;3.70;;
53931;SDS011;39844;52.496;13.482;2023-06-10T06:40:48;5.88;;;3.80;;
53931;SDS011;39844;52.496;13.482;2023-06-10T06:43:13;3.30;;;3.00;;
53931;SDS011;39844;52.496;13.482;2023-06-10T06:45:38;5.00;;;3.47;;
53931;SDS011;39844;52.496;13.482;2023-06-10T06:48:04;5.05;;;3.63;;
53931;SDS011;39844;52.496;13.482;2023-06-10T06:50:30;3.87;;;3.30;;
53931;SDS011;39844;52.496;13.482;2023-06-10T06:52:55;3.63;;;2.90;;
53931;SDS011;39844;52.496;13.482;2023-06-10T06:55:21;6.07;;;3.70;;
53931;SDS011;39844;52.496;13.482;2023-06-10T06:57:46;4.18;;;3.72;;
53931;SDS011;39844;52.496;13.482;2023-06-10T07:00:11;4.40;;;3.30;;
53931;SDS011;39844;52.496;13.482;2023-06-10T07:02:37;7.32;;;3.53;;
53931;SDS011;39844;52.496;13.482;2023-06-10T07:05:02;4.00;;;2.97;;
53931;SDS011;39844;52.496;13.482;2023-06-10T07:07:28;4.15;;;3.58;;
53931;SDS011;39844;52.496;13.482;2023-06-10T07:09:53;7.25;;;3.45;;
53931;SDS011;39844;52.496;13.482;2023-06-10T07:12:18;3.67;;;3.38;;
53931;SDS011;39844;52.496;13.482;2023-06-10T07:14:44;3.55;;;3.22;;
53931;SDS011;39844;52.496;13.482;2023-06-10T07:17:10;4.93;;;3.35;;
53931;SDS011;39844;52.496;13.482;2023-06-10T07:19:35;9.38;;;3.40;;
53931;SDS011;39844;52.496;13.482;2023-06-10T07:22:00;6.10;;;3.47;;
53931;SDS011;39844;52.496;13.482;2023-06-10T07:24:26;4.07;;;3.45;;
53931;SDS011;39844;52.496;13.482;2023-06-10T07:26:51;4.32;;;3.47;;
53931;SDS011;39844;52.496;13.482;2023-06-10T07:29:16;4.10;;;3.70;;
53931;SDS011;39844;52.496;13.482;2023-06-10T07:31:44;6.63;;;3.28;;
53931;SDS011;39844;52.496;13.482;2023-06-10T07:34:10;4.88;;;3.33;;
53931;SDS011;39844;52.496;13.482;2023-06-10T07:36:35;4.40;;;3.50;;
53931;SDS011;39844;52.496;13.482;2023-06-10T07:39:00;5.30;;;3.45;;
53931;SDS011;39844;52.496;13.482;2023-06-10T07:41:28;6.53;;;3.50;;
53931;SDS011;39844;52.496;13.482;2023-06-10T07:43:53;3.40;;;3.10;;
53931;SDS011;39844;52.496;13.482;2023-06-10T07:46:19;6.03;;;3.60;;
53931;SDS011;39844;52.496;13.482;2023-06-10T07:48:45;6.43;;;3.30;;
53931;SDS011;39844;52.496;13.482;2023-06-10T07:51:10;5.03;;;3.70;;
53931;SDS011;39844;52.496;13.482;2023-06-10T07:53:35;4.38;;;3.35;;
53931;SDS011;39844;52.496;13.482;2023-06-10T07:56:01;5.03;;;3.90;;
53931;SDS011;39844;52.496;13.482;2023-06-10T07:58:26;3.97;;;3.50;;
53931;SDS011;39844;52.496;13.482;2023-06-10T08:00:51;5.28;;;3.67;;
53931;SDS011;39844;52.496;13.482;2023-06-10T08:03:17;7.00;;;3.88;;
53931;SDS011;39844;52.496;13.482;2023-06-10T08:05:42;9.10;;;3.72;;
53931;SDS011;39844;52.496;13.482;2023-06-10T08:08:08;10.50;;;3.70;;
53931;SDS011;39844;52.496;13.482;2023-06-10T08:10:33;11.15;;;3.40;;
53931;SDS011;39844;52.496;13.482;2023-06-10T08:12:58;4.10;;;3.70;;
53931;SDS011;39844;52.496;13.482;2023-06-10T08:15:24;5.30;;;3.80;;
53931;SDS011;39844;52.496;13.482;2023-06-10T08:17:49;4.93;;;3.63;;
53931;SDS011;39844;52.496;13.482;2023-06-10T08:20:14;6.15;;;3.50;;
53931;SDS011;39844;52.496;13.482;2023-06-10T08:22:39;6.25;;;3.83;;
53931;SDS011;39844;52.496;13.482;2023-06-10T08:25:05;5.88;;;3.83;;
53931;SDS011;39844;52.496;13.482;2023-06-10T08:27:30;4.70;;;3.90;;
53931;SDS011;39844;52.496;13.482;2023-06-10T08:29:56;6.90;;;3.97;;
53931;SDS011;39844;52.496;13.482;2023-06-10T08:32:21;4.45;;;4.03;;
53931;SDS011;39844;52.496;13.482;2023-06-10T08:34:46;4.15;;;3.80;;
53931;SDS011;39844;52.496;13.482;2023-06-10T08:37:11;3.92;;;3.63;;
53931;SDS011;39844;52.496;13.482;2023-06-10T08:39:37;6.03;;;4.18;;
53931;SDS011;39844;52.496;13.482;2023-06-10T08:44:40;5.82;;;4.10;;
53931;SDS011;39844;52.496;13.482;2023-06-10T08:47:16;6.20;;;3.92;;
53931;SDS011;39844;52.496;13.482;2023-06-10T08:49:45;4.70;;;3.70;;
53931;SDS011;39844;52.496;13.482;2023-06-10T08:52:14;5.10;;;3.88;;
53931;SDS011;39844;52.496;13.482;2023-06-10T08:54:40;5.55;;;3.20;;
53931;SDS011;39844;52.496;13.482;2023-06-10T08:57:09;4.60;;;4.15;;
53931;SDS011;39844;52.496;13.482;2023-06-10T08:59:34;4.32;;;3.50;;
53931;SDS011;39844;52.496;13.482;2023-06-10T09:02:00;6.57;;;3.75;;
53931;SDS011;39844;52.496;13.482;2023-06-10T09:04:27;4.15;;;3.35;;
53931;SDS011;39844;52.496;13.482;2023-06-10T09:06:52;5.25;;;4.10;;
53931;SDS011;39844;52.496;13.482;2023-06-10T09:09:18;3.42;;;3.13;;
53931;SDS011;39844;52.496;13.482;2023-06-10T09:11:44;4.18;;;3.35;;
53931;SDS011;39844;52.496;13.482;2023-06-10T09:14:10;5.65;;;4.15;;
53931;SDS011;39844;52.496;13.482;2023-06-10T09:16:35;4.20;;;3.72;;
53931;SDS011;39844;52.496;13.482;2023-06-10T09:19:00;8.82;;;3.97;;
53931;SDS011;39844;52.496;13.482;2023-06-10T09:21:26;6.80;;;3.70;;
53931;SDS011;39844;52.496;13.482;2023-06-10T09:23:52;4.43;;;3.95;;
53931;SDS011;39844;52.496;13.482;2023-06-10T09:26:18;4.35;;;3.45;;
53931;SDS011;39844;52.496;13.482;2023-06-10T09:28:44;6.38;;;3.63;;
53931;SDS011;39844;52.496;13.482;2023-06-10T09:31:12;8.23;;;3.58;;
53931;SDS011;39844;52.496;13.482;2023-06-10T09:33:38;6.70;;;3.72;;
53931;SDS011;39844;52.496;13.482;2023-06-10T09:36:04;7.40;;;3.22;;
53931;SDS011;39844;52.496;13.482;2023-06-10T09:38:30;4.78;;;3.65;;
53931;SDS011;39844;52.496;13.482;2023-06-10T09:40:57;3.80;;;3.25;;
53931;SDS011;39844;52.496;13.482;2023-06-10T09:43:23;6.43;;;3.08;;
53931;SDS011;39844;52.496;13.482;2023-06-10T09:46:06;4.45;;;3.25;;
53931;SDS011;39844;52.496;13.482;2023-06-10T09:48:42;7.13;;;3.53;;
53931;SDS011;39844;52.496;13.482;2023-06-10T09:51:08;6.43;;;3.75;;
53931;SDS011;39844;52.496;13.482;2023-06-10T09:53:35;4.15;;;3.38;;
53931;SDS011;39844;52.496;13.482;2023-06-10T09:56:00;6.63;;;3.75;;
53931;SDS011;39844;52.496;13.482;2023-06-10T09:58:37;8.00;;;3.80;;
53931;SDS011;39844;52.496;13.482;2023-06-10T10:01:08;5.63;;;3.60;;
53931;SDS011;39844;52.496;13.482;2023-06-10T10:03:42;3.88;;;3.58;;
53931;SDS011;39844;52.496;13.482;2023-06-10T10:06:11;5.82;;;3.55;;
53931;SDS011;39844;52.496;13.482;2023-06-10T10:08:37;3.65;;;3.35;;
53931;SDS011;39844;52.496;13.482;2023-06-10T10:11:02;4.13;;;3.15;;
53931;SDS011;39844;52.496;13.482;2023-06-10T10:13:28;5.47;;;4.18;;
53931;SDS011;39844;52.496;13.482;2023-06-10T10:15:56;5.00;;;3.25;;
53931;SDS011;39844;52.496;13.482;2023-06-10T10:18:27;4.38;;;3.28;;
53931;SDS011;39844;52.496;13.482;2023-06-10T10:20:54;5.43;;;3.88;;
53931;SDS011;39844;52.496;13.482;2023-06-10T10:23:29;3.65;;;3.30;;
53931;SDS011;39844;52.496;13.482;2023-06-10T10:25:59;4.53;;;3.35;;
53931;SDS011;39844;52.496;13.482;2023-06-10T10:28:29;3.60;;;3.30;;
53931;SDS011;39844;52.496;13.482;2023-06-10T10:31:10;4.70;;;3.20;;
53931;SDS011;39844;52.496;13.482;2023-06-10T10:33:45;4.18;;;3.17;;
53931;SDS011;39844;52.496;13.482;2023-06-10T10:36:20;4.25;;;2.75;;
53931;SDS011;39844;52.496;13.482;2023-06-10T10:38:45;3.58;;;2.67;;
53931;SDS011;39844;52.496;13.482;2023-06-10T10:41:13;4.18;;;3.10;;
53931;SDS011;39844;52.496;13.482;2023-06-10T10:43:39;3.90;;;3.53;;
53931;SDS011;39844;52.496;13.482;2023-06-10T10:46:09;2.97;;;2.67;;
53931;SDS011;39844;52.496;13.482;2023-06-10T10:48:37;2.78;;;2.67;;
53931;SDS011;39844;52.496;13.482;2023-06-10T10:51:04;2.50;;;2.30;;
53931;SDS011;39844;52.496;13.482;2023-06-10T10:53:29;2.75;;;2.55;;
53931;SDS011;39844;52.496;13.482;2023-06-10T10:55:58;7.28;;;2.63;;
53931;SDS011;39844;52.496;13.482;2023-06-10T10:58:37;2.90;;;2.70;;
53931;SDS011;39844;52.496;13.482;2023-06-10T11:01:12;3.47;;;2.60;;
53931;SDS011;39844;52.496;13.482;2023-06-10T11:03:44;2.85;;;2.65;;
53931;SDS011;39844;52.496;13.482;2023-06-10T11:06:14;6.47;;;2.80;;
53931;SDS011;39844;52.496;13.482;2023-06-10T11:13:57;3.45;;;2.67;;
53931;SDS011;39844;52.496;13.482;2023-06-10T11:16:23;3.65;;;2.80;;
53931;SDS011;39844;52.496;13.482;2023-06-10T11:18:53;4.18;;;2.58;;
53931;SDS011;39844;52.496;13.482;2023-06-10T11:21:19;3.38;;;3.10;;
53931;SDS011;39844;52.496;13.482;2023-06-10T11:23:44;3.28;;;3.08;;
53931;SDS011;39844;52.496;13.482;2023-06-10T11:26:10;3.10;;;2.90;;
53931;SDS011;39844;52.496;13.482;2023-06-10T11:28:38;3.20;;;3.00;;
53931;SDS011;39844;52.496;13.482;2023-06-10T11:31:04;3.80;;;3.40;;
53931;SDS011;39844;52.496;13.482;2023-06-10T11:33:29;3.53;;;3.10;;
53931;SDS011;39844;52.496;13.482;2023-06-10T11:35:56;3.10;;;2.80;;
53931;SDS011;39844;52.496;13.482;2023-06-10T11:38:21;3.08;;;2.40;;
53931;SDS011;39844;52.496;13.482;2023-06-10T11:40:48;3.75;;;2.65;;
53931;SDS011;39844;52.496;13.482;2023-06-10T11:43:14;3.05;;;2.85;;
53931;SDS011;39844;52.496;13.482;2023-06-10T11:45:41;5.53;;;3.08;;
53931;SDS011;39844;52.496;13.482;2023-06-10T11:48:09;3.15;;;2.90;;
53931;SDS011;39844;52.496;13.482;2023-06-10T11:50:35;3.30;;;3.00;;
53931;SDS011;39844;52.496;13.482;2023-06-10T11:53:01;3.47;;;2.72;;
53931;SDS011;39844;52.496;13.482;2023-06-10T11:58:15;4.63;;;2.58;;
53931;SDS011;39844;52.496;13.482;2023-06-10T12:00:48;2.83;;;2.63;;
53931;SDS011;39844;52.496;13.482;2023-06-10T12:03:15;2.63;;;2.42;;
53931;SDS011;39844;52.496;13.482;2023-06-10T12:05:54;2.92;;;2.55;;
53931;SDS011;39844;52.496;13.482;2023-06-10T12:08:19;2.60;;;2.45;;
53931;SDS011;39844;52.496;13.482;2023-06-10T12:10:44;3.10;;;2.90;;
53931;SDS011;39844;52.496;13.482;2023-06-10T12:13:12;3.17;;;2.88;;
53931;SDS011;39844;52.496;13.482;2023-06-10T12:15:37;5.05;;;3.28;;
53931;SDS011;39844;52.496;13.482;2023-06-10T12:18:03;3.10;;;2.80;;
53931;SDS011;39844;52.496;13.482;2023-06-10T12:20:29;6.40;;;3.70;;
53931;SDS011;39844;52.496;13.482;2023-06-10T12:22:55;4.95;;;3.40;;
53931;SDS011;39844;52.496;13.482;2023-06-10T12:25:24;3.90;;;3.60;;
53931;SDS011;39844;52.496;13.482;2023-06-10T12:27:51;4.13;;;3.72;;
53931;SDS011;39844;52.496;13.482;2023-06-10T12:30:18;4.65;;;3.55;;
53931;SDS011;39844;52.496;13.482;2023-06-10T12:32:45;3.95;;;3.65;;
53931;SDS011;39844;52.496;13.482;2023-06-10T12:35:32;4.20;;;3.67;;
53931;SDS011;39844;52.496;13.482;2023-06-10T12:38:06;4.30;;;3.85;;
53931;SDS011;39844;52.496;13.482;2023-06-10T12:40:34;5.70;;;4.10;;
53931;SDS011;39844;52.496;13.482;2023-06-10T12:43:02;5.28;;;4.18;;
53931;SDS011;39844;52.496;13.482;2023-06-10T12:48:03;4.25;;;3.80;;
53931;SDS011;39844;52.496;13.482;2023-06-10T12:50:49;4.20;;;3.88;;
53931;SDS011;39844;52.496;13.482;2023-06-10T12:53:19;4.25;;;3.95;;
53931;SDS011;39844;52.496;13.482;2023-06-10T12:55:45;5.90;;;4.18;;
53931;SDS011;39844;52.496;13.482;2023-06-10T12:58:11;4.15;;;3.75;;
53931;SDS011;39844;52.496;13.482;2023-06-10T13:00:37;5.55;;;4.20;;
53931;SDS011;39844;52.496;13.482;2023-06-10T13:03:03;6.85;;;4.15;;
53931;SDS011;39844;52.496;13.482;2023-06-10T13:05:28;5.15;;;4.55;;
53931;SDS011;39844;52.496;13.482;2023-06-10T13:07:54;7.57;;;4.05;;
53931;SDS011;39844;52.496;13.482;2023-06-10T13:10:20;4.20;;;3.83;;
53931;SDS011;39844;52.496;13.482;2023-06-10T13:12:46;4.88;;;4.18;;
53931;SDS011;39844;52.496;13.482;2023-06-10T13:15:12;4.75;;;3.95;;
53931;SDS011;39844;52.496;13.482;2023-06-10T13:17:38;5.32;;;4.03;;
53931;SDS011;39844;52.496;13.482;2023-06-10T13:20:03;4.90;;;4.32;;
53931;SDS011;39844;52.496;13.482;2023-06-10T13:22:29;4.13;;;3.80;;
53931;SDS011;39844;52.496;13.482;2023-06-10T13:24:54;4.43;;;3.95;;
53931;SDS011;39844;52.496;13.482;2023-06-10T13:27:20;4.97;;;4.03;;
53931;SDS011;39844;52.496;13.482;2023-06-10T13:29:45;4.35;;;4.05;;
53931;SDS011;39844;52.496;13.482;2023-06-10T13:32:10;4.30;;;3.90;;
53931;SDS011;39844;52.496;13.482;2023-06-10T13:34:36;4.82;;;4.03;;
53931;SDS011;39844;52.496;13.482;2023-06-10T13:37:01;9.52;;;4.65;;
53931;SDS011;39844;52.496;13.482;2023-06-10T13:39:26;4.35;;;3.95;;
53931;SDS011;39844;52.496;13.482;2023-06-10T13:41:52;4.53;;;4.13;;
53931;SDS011;39844;52.496;13.482;2023-06-10T13:44:17;4.32;;;3.88;;
53931;SDS011;39844;52.496;13.482;2023-06-10T13:46:42;3.97;;;3.67;;
53931;SDS011;39844;52.496;13.482;2023-06-10T13:49:08;4.53;;;4.13;;
53931;SDS011;39844;52.496;13.482;2023-06-10T13:51:33;4.18;;;3.80;;
53931;SDS011;39844;52.496;13.482;2023-06-10T13:53:58;4.32;;;4.00;;
53931;SDS011;39844;52.496;13.482;2023-06-10T13:56:23;8.32;;;3.80;;
53931;SDS011;39844;52.496;13.482;2023-06-10T13:58:49;7.32;;;4.45;;
53931;SDS011;39844;52.496;13.482;2023-06-10T14:01:14;8.75;;;3.63;;
53931;SDS011;39844;52.496;13.482;2023-06-10T14:03:39;6.30;;;4.45;;
53931;SDS011;39844;52.496;13.482;2023-06-10T14:06:05;4.07;;;3.67;;
53931;SDS011;39844;52.496;13.482;2023-06-10T14:08:30;4.03;;;3.67;;
53931;SDS011;39844;52.496;13.482;2023-06-10T14:10:55;5.22;;;3.70;;
53931;SDS011;39844;52.496;13.482;2023-06-10T14:13:21;3.83;;;3.47;;
53931;SDS011;39844;52.496;13.482;2023-06-10T14:15:46;4.50;;;3.80;;
53931;SDS011;39844;52.496;13.482;2023-06-10T14:18:11;5.40;;;3.95;;
53931;SDS011;39844;52.496;13.482;2023-06-10T14:20:37;3.47;;;3.17;;
53931;SDS011;39844;52.496;13.482;2023-06-10T14:23:02;3.78;;;3.47;;
53931;SDS011;39844;52.496;13.482;2023-06-10T14:25:27;5.68;;;3.50;;
53931;SDS011;39844;52.496;13.482;2023-06-10T14:27:53;10.60;;;3.92;;
53931;SDS011;39844;52.496;13.482;2023-06-10T14:30:18;4.18;;;3.78;;
53931;SDS011;39844;52.496;13.482;2023-06-10T14:32:44;6.97;;;3.47;;
53931;SDS011;39844;52.496;13.482;2023-06-10T14:35:09;5.38;;;3.67;;
53931;SDS011;39844;52.496;13.482;2023-06-10T14:37:34;3.53;;;3.22;;
53931;SDS011;39844;52.496;13.482;2023-06-10T14:40:00;5.57;;;3.40;;
53931;SDS011;39844;52.496;13.482;2023-06-10T14:42:25;4.03;;;3.72;;